sensor_id;sensor_type;location;lat;lon;timestamp;pressure;altitude;pressure_sealevel;temperature;humidity
25238;BME280;13185;50.872;5.306;2023-06-26T00:02:09;100973.75;;;23.30;68.55
25238;BME280;13185;50.872;5.306;2023-06-26T00:04:34;100977.72;;;23.27;68.15
25238;BME280;13185;50.872;5.306;2023-06-26T00:07:01;100974.97;;;23.27;68.65
25238;BME280;13185;50.872;5.306;2023-06-26T00:09:26;100971.91;;;23.22;68.60
25238;BME280;13185;50.872;5.306;2023-06-26T00:11:52;100978.59;;;23.20;68.51
25238;BME280;13185;50.872;5.306;2023-06-26T00:14:17;100976.22;;;23.17;68.03
25238;BME280;13185;50.872;5.306;2023-06-26T00:16:46;100974.88;;;23.13;68.36
25238;BME280;13185;50.872;5.306;2023-06-26T00:19:12;100967.88;;;23.10;68.16
25238;BME280;13185;50.872;5.306;2023-06-26T00:21:37;100985.50;;;23.08;68.51
25238;BME280;13185;50.872;5.306;2023-06-26T00:24:03;100983.81;;;23.07;68.39
25238;BME280;13185;50.872;5.306;2023-06-26T00:26:28;100987.91;;;23.02;68.45
25238;BME280;13185;50.872;5.306;2023-06-26T00:28:54;100995.63;;;22.99;68.67
25238;BME280;13185;50.872;5.306;2023-06-26T00:31:19;100984.00;;;22.97;68.68
25238;BME280;13185;50.872;5.306;2023-06-26T00:33:45;100990.88;;;22.93;68.77
25238;BME280;13185;50.872;5.306;2023-06-26T00:36:10;100993.75;;;22.91;68.70
25238;BME280;13185;50.872;5.306;2023-06-26T00:38:36;100992.91;;;22.91;68.67
25238;BME280;13185;50.872;5.306;2023-06-26T00:41:01;100991.88;;;22.92;68.87
25238;BME280;13185;50.872;5.306;2023-06-26T00:43:28;100993.94;;;22.90;68.61
25238;BME280;13185;50.872;5.306;2023-06-26T00:45:54;100991.38;;;22.88;69.10
25238;BME280;13185;50.872;5.306;2023-06-26T00:48:19;100985.25;;;22.86;69.12
25238;BME280;13185;50.872;5.306;2023-06-26T00:50:45;100985.25;;;22.86;69.12
25238;BME280;13185;50.872;5.306;2023-06-26T00:53:11;100993.63;;;22.85;69.21
25238;BME280;13185;50.872;5.306;2023-06-26T00:55:37;100983.84;;;22.82;69.71
25238;BME280;13185;50.872;5.306;2023-06-26T00:58:02;100982.84;;;22.75;69.93
25238;BME280;13185;50.872;5.306;2023-06-26T01:00:28;100992.28;;;22.72;69.88
25238;BME280;13185;50.872;5.306;2023-06-26T01:02:53;101002.34;;;22.72;69.73
25238;BME280;13185;50.872;5.306;2023-06-26T01:05:21;101007.97;;;22.70;69.65
25238;BME280;13185;50.872;5.306;2023-06-26T01:07:49;101009.53;;;22.65;69.71
25238;BME280;13185;50.872;5.306;2023-06-26T01:10:15;101020.66;;;22.63;69.78
25238;BME280;13185;50.872;5.306;2023-06-26T01:12:40;101022.69;;;22.61;70.17
25238;BME280;13185;50.872;5.306;2023-06-26T01:15:06;101018.59;;;22.57;70.50
25238;BME280;13185;50.872;5.306;2023-06-26T01:17:33;101020.66;;;22.55;70.41
25238;BME280;13185;50.872;5.306;2023-06-26T01:19:59;101019.31;;;22.51;70.84
25238;BME280;13185;50.872;5.306;2023-06-26T01:22:33;101018.28;;;22.44;71.27
25238;BME280;13185;50.872;5.306;2023-06-26T01:25:41;101025.63;;;22.35;71.57
25238;BME280;13185;50.872;5.306;2023-06-26T01:28:10;101026.84;;;22.33;71.70
25238;BME280;13185;50.872;5.306;2023-06-26T01:30:41;101025.13;;;22.32;71.87
25238;BME280;13185;50.872;5.306;2023-06-26T01:33:06;101020.16;;;22.27;71.75
25238;BME280;13185;50.872;5.306;2023-06-26T01:35:32;101025.13;;;22.24;72.10
25238;BME280;13185;50.872;5.306;2023-06-26T01:38:17;101030.94;;;22.21;72.35
25238;BME280;13185;50.872;5.306;2023-06-26T01:40:44;101024.78;;;22.18;72.48
25238;BME280;13185;50.872;5.306;2023-06-26T01:46:04;101026.16;;;22.14;72.79
25238;BME280;13185;50.872;5.306;2023-06-26T01:48:34;101028.19;;;22.12;72.75
25238;BME280;13185;50.872;5.306;2023-06-26T01:51:05;101029.41;;;22.10;72.81
25238;BME280;13185;50.872;5.306;2023-06-26T01:53:38;101035.50;;;22.04;73.36
25238;BME280;13185;50.872;5.306;2023-06-26T01:56:10;101037.72;;;22.00;73.28
25238;BME280;13185;50.872;5.306;2023-06-26T01:58:40;101039.59;;;21.92;72.86
25238;BME280;13185;50.872;5.306;2023-06-26T02:01:08;101048.97;;;21.89;72.60
25238;BME280;13185;50.872;5.306;2023-06-26T02:03:35;101049.13;;;21.87;72.33
25238;BME280;13185;50.872;5.306;2023-06-26T02:06:00;101047.75;;;21.83;71.11
25238;BME280;13185;50.872;5.306;2023-06-26T02:08:26;101057.16;;;21.81;70.80
25238;BME280;13185;50.872;5.306;2023-06-26T02:10:55;101046.53;;;21.78;70.41
25238;BME280;13185;50.872;5.306;2023-06-26T02:13:21;101055.63;;;21.78;70.02
25238;BME280;13185;50.872;5.306;2023-06-26T02:15:46;101061.06;;;21.78;69.83
25238;BME280;13185;50.872;5.306;2023-06-26T02:18:13;101061.22;;;21.77;69.63
25238;BME280;13185;50.872;5.306;2023-06-26T02:20:38;101058.81;;;21.74;69.54
25238;BME280;13185;50.872;5.306;2023-06-26T02:23:05;101061.72;;;21.72;69.43
25238;BME280;13185;50.872;5.306;2023-06-26T02:25:30;101060.50;;;21.67;69.18
25238;BME280;13185;50.872;5.306;2023-06-26T02:27:56;101069.00;;;21.55;68.88
25238;BME280;13185;50.872;5.306;2023-06-26T02:30:21;101066.41;;;21.46;68.71
25238;BME280;13185;50.872;5.306;2023-06-26T02:32:47;101068.63;;;21.42;68.71
25238;BME280;13185;50.872;5.306;2023-06-26T02:35:12;101069.47;;;21.43;68.95
25238;BME280;13185;50.872;5.306;2023-06-26T02:37:41;101073.88;;;21.36;68.68
25238;BME280;13185;50.872;5.306;2023-06-26T02:40:07;101074.72;;;21.28;68.76
25238;BME280;13185;50.872;5.306;2023-06-26T02:42:35;101073.00;;;21.27;69.00
25238;BME280;13185;50.872;5.306;2023-06-26T02:45:01;101071.31;;;21.26;68.80
25238;BME280;13185;50.872;5.306;2023-06-26T02:47:28;101073.28;;;21.24;68.83
25238;BME280;13185;50.872;5.306;2023-06-26T02:49:54;101074.31;;;21.23;68.62
25238;BME280;13185;50.872;5.306;2023-06-26T02:52:19;101079.91;;;21.21;68.58
25238;BME280;13185;50.872;5.306;2023-06-26T02:54:45;101076.16;;;21.22;68.70
25238;BME280;13185;50.872;5.306;2023-06-26T02:57:12;101078.03;;;21.22;68.55
25238;BME280;13185;50.872;5.306;2023-06-26T02:59:40;101072.94;;;21.19;68.34
25238;BME280;13185;50.872;5.306;2023-06-26T03:02:06;101080.56;;;21.15;68.61
25238;BME280;13185;50.872;5.306;2023-06-26T03:04:39;101087.19;;;21.13;68.69
25238;BME280;13185;50.872;5.306;2023-06-26T03:07:09;101092.81;;;21.11;68.79
25238;BME280;13185;50.872;5.306;2023-06-26T03:09:36;101092.13;;;21.09;68.91
25238;BME280;13185;50.872;5.306;2023-06-26T03:12:02;101097.19;;;21.04;68.97
25238;BME280;13185;50.872;5.306;2023-06-26T03:14:28;101098.56;;;21.00;68.98
25238;BME280;13185;50.872;5.306;2023-06-26T03:16:54;101103.31;;;20.98;69.54
25238;BME280;13185;50.872;5.306;2023-06-26T03:19:24;101108.09;;;20.96;69.61
25238;BME280;13185;50.872;5.306;2023-06-26T03:22:08;101107.00;;;20.89;69.86
25238;BME280;13185;50.872;5.306;2023-06-26T03:24:34;101110.34;;;20.83;70.08
25238;BME280;13185;50.872;5.306;2023-06-26T03:26:59;101120.72;;;20.79;70.54
25238;BME280;13185;50.872;5.306;2023-06-26T03:29:25;101121.53;;;20.71;70.77
25238;BME280;13185;50.872;5.306;2023-06-26T03:31:51;101125.59;;;20.67;71.38
25238;BME280;13185;50.872;5.306;2023-06-26T03:34:18;101129.94;;;20.60;71.92
25238;BME280;13185;50.872;5.306;2023-06-26T03:36:43;101119.69;;;20.54;72.37
25238;BME280;13185;50.872;5.306;2023-06-26T03:39:09;101119.31;;;20.49;72.75
25238;BME280;13185;50.872;5.306;2023-06-26T03:41:35;101122.34;;;20.46;73.22
25238;BME280;13185;50.872;5.306;2023-06-26T03:44:00;101129.56;;;20.37;73.92
25238;BME280;13185;50.872;5.306;2023-06-26T03:46:33;101130.03;;;20.33;74.56
25238;BME280;13185;50.872;5.306;2023-06-26T03:48:58;101137.81;;;20.28;74.55
25238;BME280;13185;50.872;5.306;2023-06-26T03:51:24;101136.25;;;20.25;74.88
25238;BME280;13185;50.872;5.306;2023-06-26T03:53:49;101140.16;;;20.23;75.51
25238;BME280;13185;50.872;5.306;2023-06-26T03:56:15;101147.06;;;20.17;75.31
25238;BME280;13185;50.872;5.306;2023-06-26T03:58:42;101151.97;;;20.13;75.98
25238;BME280;13185;50.872;5.306;2023-06-26T04:01:07;101154.53;;;20.15;75.96
25238;BME280;13185;50.872;5.306;2023-06-26T04:03:33;101147.53;;;20.12;76.15
25238;BME280;13185;50.872;5.306;2023-06-26T04:05:59;101147.97;;;20.08;76.38
25238;BME280;13185;50.872;5.306;2023-06-26T04:08:24;101152.25;;;20.10;76.37
25238;BME280;13185;50.872;5.306;2023-06-26T04:10:52;101153.75;;;20.05;76.54
25238;BME280;13185;50.872;5.306;2023-06-26T04:13:19;101162.75;;;20.05;76.61
25238;BME280;13185;50.872;5.306;2023-06-26T04:15:44;101171.25;;;20.02;76.53
25238;BME280;13185;50.872;5.306;2023-06-26T04:18:10;101168.53;;;20.02;76.90
25238;BME280;13185;50.872;5.306;2023-06-26T04:20:39;101178.69;;;20.00;77.12
25238;BME280;13185;50.872;5.306;2023-06-26T04:23:05;101170.28;;;19.94;77.51
25238;BME280;13185;50.872;5.306;2023-06-26T04:25:30;101173.16;;;19.92;77.73
25238;BME280;13185;50.872;5.306;2023-06-26T04:27:58;101189.19;;;19.95;77.88
25238;BME280;13185;50.872;5.306;2023-06-26T04:30:23;101189.03;;;19.97;78.24
25238;BME280;13185;50.872;5.306;2023-06-26T04:32:49;101182.88;;;19.95;78.32
25238;BME280;13185;50.872;5.306;2023-06-26T04:35:14;101192.44;;;19.99;78.45
25238;BME280;13185;50.872;5.306;2023-06-26T04:37:39;101194.63;;;19.95;78.70
25238;BME280;13185;50.872;5.306;2023-06-26T04:40:06;101204.19;;;19.99;78.88
25238;BME280;13185;50.872;5.306;2023-06-26T04:42:32;101205.63;;;20.03;78.93
25238;BME280;13185;50.872;5.306;2023-06-26T04:44:58;101195.97;;;20.09;79.09
25238;BME280;13185;50.872;5.306;2023-06-26T04:47:23;101200.28;;;20.11;79.29
25238;BME280;13185;50.872;5.306;2023-06-26T04:49:48;101210.06;;;20.04;79.52
25238;BME280;13185;50.872;5.306;2023-06-26T04:52:14;101208.19;;;20.05;79.53
25238;BME280;13185;50.872;5.306;2023-06-26T04:54:39;101222.19;;;20.10;79.54
25238;BME280;13185;50.872;5.306;2023-06-26T04:57:05;101207.72;;;20.09;79.78
25238;BME280;13185;50.872;5.306;2023-06-26T04:59:31;101214.50;;;20.05;80.05
25238;BME280;13185;50.872;5.306;2023-06-26T05:01:56;101221.25;;;20.01;80.03
25238;BME280;13185;50.872;5.306;2023-06-26T05:04:22;101232.28;;;20.00;80.31
25238;BME280;13185;50.872;5.306;2023-06-26T05:06:48;101225.13;;;19.99;80.43
25238;BME280;13185;50.872;5.306;2023-06-26T05:09:13;101229.44;;;20.01;80.71
25238;BME280;13185;50.872;5.306;2023-06-26T05:11:39;101227.56;;;20.02;80.58
25238;BME280;13185;50.872;5.306;2023-06-26T05:14:05;101231.53;;;20.07;81.00
25238;BME280;13185;50.872;5.306;2023-06-26T05:16:33;101232.97;;;20.11;80.82
25238;BME280;13185;50.872;5.306;2023-06-26T05:18:59;101234.91;;;20.19;80.67
25238;BME280;13185;50.872;5.306;2023-06-26T05:21:25;101237.41;;;20.30;80.60
25238;BME280;13185;50.872;5.306;2023-06-26T05:23:51;101220.47;;;20.36;80.19
25238;BME280;13185;50.872;5.306;2023-06-26T05:26:21;101220.28;;;20.38;79.85
25238;BME280;13185;50.872;5.306;2023-06-26T05:28:46;101227.91;;;20.44;79.60
25238;BME280;13185;50.872;5.306;2023-06-26T05:31:15;101225.56;;;20.49;79.45
25238;BME280;13185;50.872;5.306;2023-06-26T05:33:43;101226.97;;;20.53;79.16
25238;BME280;13185;50.872;5.306;2023-06-26T05:36:09;101221.03;;;20.58;79.18
25238;BME280;13185;50.872;5.306;2023-06-26T05:38:35;101229.31;;;20.66;78.99
25238;BME280;13185;50.872;5.306;2023-06-26T05:41:01;101228.81;;;20.70;79.15
25238;BME280;13185;50.872;5.306;2023-06-26T05:43:26;101242.84;;;20.75;78.81
25238;BME280;13185;50.872;5.306;2023-06-26T05:45:51;101237.63;;;20.82;78.86
25238;BME280;13185;50.872;5.306;2023-06-26T05:48:17;101241.75;;;20.86;78.39
25238;BME280;13185;50.872;5.306;2023-06-26T05:50:43;101245.50;;;20.85;77.59
25238;BME280;13185;50.872;5.306;2023-06-26T05:53:09;101246.03;;;20.89;77.60
25238;BME280;13185;50.872;5.306;2023-06-26T05:55:35;101255.38;;;20.86;77.21
25238;BME280;13185;50.872;5.306;2023-06-26T05:58:02;101267.16;;;20.87;77.20
25238;BME280;13185;50.872;5.306;2023-06-26T06:00:28;101276.97;;;20.80;76.25
25238;BME280;13185;50.872;5.306;2023-06-26T06:02:54;101265.44;;;20.68;75.43
25238;BME280;13185;50.872;5.306;2023-06-26T06:05:20;101279.75;;;20.70;75.17
25238;BME280;13185;50.872;5.306;2023-06-26T06:07:46;101267.22;;;20.77;76.23
25238;BME280;13185;50.872;5.306;2023-06-26T06:10:12;101275.72;;;20.74;76.72
25238;BME280;13185;50.872;5.306;2023-06-26T06:12:37;101269.53;;;20.72;76.94
25238;BME280;13185;50.872;5.306;2023-06-26T06:15:04;101282.88;;;20.75;76.03
25238;BME280;13185;50.872;5.306;2023-06-26T06:17:30;101287.00;;;20.79;75.32
25238;BME280;13185;50.872;5.306;2023-06-26T06:19:55;101286.94;;;20.89;74.90
25238;BME280;13185;50.872;5.306;2023-06-26T06:22:21;101283.81;;;21.01;74.88
25238;BME280;13185;50.872;5.306;2023-06-26T06:24:48;101298.13;;;21.21;74.17
25238;BME280;13185;50.872;5.306;2023-06-26T06:27:13;101305.56;;;21.29;73.85
25238;BME280;13185;50.872;5.306;2023-06-26T06:29:39;101302.22;;;21.25;72.89
25238;BME280;13185;50.872;5.306;2023-06-26T06:32:06;101306.63;;;21.00;71.95
25238;BME280;13185;50.872;5.306;2023-06-26T06:34:31;101301.78;;;20.94;71.05
25238;BME280;13185;50.872;5.306;2023-06-26T06:36:57;101302.56;;;21.04;70.61
25238;BME280;13185;50.872;5.306;2023-06-26T06:39:22;101301.69;;;21.22;70.29
25238;BME280;13185;50.872;5.306;2023-06-26T06:41:48;101313.81;;;21.37;69.76
25238;BME280;13185;50.872;5.306;2023-06-26T06:44:13;101306.16;;;21.41;68.55
25238;BME280;13185;50.872;5.306;2023-06-26T06:46:39;101303.44;;;21.41;68.29
25238;BME280;13185;50.872;5.306;2023-06-26T06:49:04;101310.00;;;21.56;67.37
25238;BME280;13185;50.872;5.306;2023-06-26T06:51:30;101310.47;;;21.69;67.40
25238;BME280;13185;50.872;5.306;2023-06-26T06:53:55;101314.41;;;21.75;67.41
25238;BME280;13185;50.872;5.306;2023-06-26T06:56:21;101310.06;;;21.64;66.85
25238;BME280;13185;50.872;5.306;2023-06-26T06:58:47;101317.72;;;21.60;66.60
25238;BME280;13185;50.872;5.306;2023-06-26T07:01:13;101332.06;;;21.63;66.25
25238;BME280;13185;50.872;5.306;2023-06-26T07:03:39;101330.59;;;21.68;66.26
25238;BME280;13185;50.872;5.306;2023-06-26T07:06:04;101331.16;;;21.80;65.67
25238;BME280;13185;50.872;5.306;2023-06-26T07:08:30;101328.00;;;21.93;65.06
25238;BME280;13185;50.872;5.306;2023-06-26T07:10:55;101336.00;;;22.12;65.42
25238;BME280;13185;50.872;5.306;2023-06-26T07:13:22;101343.22;;;22.21;64.26
25238;BME280;13185;50.872;5.306;2023-06-26T07:15:47;101343.22;;;22.21;63.73
25238;BME280;13185;50.872;5.306;2023-06-26T07:18:13;101359.66;;;22.37;63.82
25238;BME280;13185;50.872;5.306;2023-06-26T07:20:39;101360.91;;;22.43;62.60
25238;BME280;13185;50.872;5.306;2023-06-26T07:23:04;101376.91;;;22.38;62.07
25238;BME280;13185;50.872;5.306;2023-06-26T07:25:30;101375.03;;;22.38;61.73
25238;BME280;13185;50.872;5.306;2023-06-26T07:27:55;101378.31;;;22.42;60.76
25238;BME280;13185;50.872;5.306;2023-06-26T07:30:21;101364.84;;;22.48;61.39
25238;BME280;13185;50.872;5.306;2023-06-26T07:32:46;101376.69;;;22.65;61.35
25238;BME280;13185;50.872;5.306;2023-06-26T07:35:12;101369.88;;;22.69;61.28
25238;BME280;13185;50.872;5.306;2023-06-26T07:37:37;101365.81;;;22.73;61.25
25238;BME280;13185;50.872;5.306;2023-06-26T07:40:03;101378.69;;;22.89;61.67
25238;BME280;13185;50.872;5.306;2023-06-26T07:42:29;101382.09;;;22.91;58.92
25238;BME280;13185;50.872;5.306;2023-06-26T07:44:54;101372.56;;;23.03;58.40
25238;BME280;13185;50.872;5.306;2023-06-26T07:47:20;101383.34;;;23.13;58.55
25238;BME280;13185;50.872;5.306;2023-06-26T07:49:45;101386.47;;;23.26;57.88
25238;BME280;13185;50.872;5.306;2023-06-26T07:52:11;101376.69;;;23.32;58.40
25238;BME280;13185;50.872;5.306;2023-06-26T07:54:36;101381.50;;;23.38;58.20
25238;BME280;13185;50.872;5.306;2023-06-26T07:57:04;101382.69;;;23.27;57.92
25238;BME280;13185;50.872;5.306;2023-06-26T07:59:32;101388.66;;;23.23;58.58
25238;BME280;13185;50.872;5.306;2023-06-26T08:01:58;101406.78;;;23.24;57.84
25238;BME280;13185;50.872;5.306;2023-06-26T08:04:26;101406.44;;;23.19;58.13
25238;BME280;13185;50.872;5.306;2023-06-26T08:06:53;101402.69;;;23.20;58.41
25238;BME280;13185;50.872;5.306;2023-06-26T08:09:21;101393.09;;;23.24;58.51
25238;BME280;13185;50.872;5.306;2023-06-26T08:11:47;101388.50;;;23.24;58.61
25238;BME280;13185;50.872;5.306;2023-06-26T08:14:13;101392.44;;;23.30;59.19
25238;BME280;13185;50.872;5.306;2023-06-26T08:16:39;101398.75;;;23.30;59.92
25238;BME280;13185;50.872;5.306;2023-06-26T08:19:04;101406.09;;;23.22;59.54
25238;BME280;13185;50.872;5.306;2023-06-26T08:21:30;101398.22;;;23.19;58.94
25238;BME280;13185;50.872;5.306;2023-06-26T08:23:55;101398.03;;;23.12;59.34
25238;BME280;13185;50.872;5.306;2023-06-26T08:26:21;101397.53;;;23.09;59.37
25238;BME280;13185;50.872;5.306;2023-06-26T08:28:47;101401.81;;;23.11;60.76
25238;BME280;13185;50.872;5.306;2023-06-26T08:31:12;101401.47;;;23.06;59.25
25238;BME280;13185;50.872;5.306;2023-06-26T08:33:38;101414.13;;;23.07;59.57
25238;BME280;13185;50.872;5.306;2023-06-26T08:36:03;101401.47;;;23.06;60.25
25238;BME280;13185;50.872;5.306;2023-06-26T08:38:29;101401.97;;;23.10;59.74
25238;BME280;13185;50.872;5.306;2023-06-26T08:40:54;101407.13;;;23.04;60.45
25238;BME280;13185;50.872;5.306;2023-06-26T08:43:20;101411.69;;;22.96;60.52
25238;BME280;13185;50.872;5.306;2023-06-26T08:45:47;101421.41;;;22.90;61.36
25238;BME280;13185;50.872;5.306;2023-06-26T08:48:17;101426.41;;;22.95;60.96
25238;BME280;13185;50.872;5.306;2023-06-26T08:50:43;101417.50;;;22.93;60.33
25238;BME280;13185;50.872;5.306;2023-06-26T08:53:21;101425.19;;;22.97;59.57
25238;BME280;13185;50.872;5.306;2023-06-26T08:55:52;101424.00;;;23.00;59.94
25238;BME280;13185;50.872;5.306;2023-06-26T08:58:18;101425.03;;;22.99;60.43
25238;BME280;13185;50.872;5.306;2023-06-26T09:00:44;101424.50;;;22.87;60.46
25238;BME280;13185;50.872;5.306;2023-06-26T09:03:09;101422.38;;;22.81;60.96
25238;BME280;13185;50.872;5.306;2023-06-26T09:05:35;101428.44;;;23.01;61.62
25238;BME280;13185;50.872;5.306;2023-06-26T09:08:01;101431.56;;;23.22;60.54
25238;BME280;13185;50.872;5.306;2023-06-26T09:10:27;101434.84;;;23.18;58.99
25238;BME280;13185;50.872;5.306;2023-06-26T09:12:55;101430.69;;;23.06;59.29
25238;BME280;13185;50.872;5.306;2023-06-26T09:15:22;101424.38;;;23.05;59.17
25238;BME280;13185;50.872;5.306;2023-06-26T09:17:48;101424.03;;;23.08;58.66
25238;BME280;13185;50.872;5.306;2023-06-26T09:20:14;101427.63;;;23.09;57.98
25238;BME280;13185;50.872;5.306;2023-06-26T09:22:43;101440.59;;;22.98;56.29
25238;BME280;13185;50.872;5.306;2023-06-26T09:25:12;101434.59;;;23.03;57.10
25238;BME280;13185;50.872;5.306;2023-06-26T09:27:37;101424.72;;;23.10;57.60
25238;BME280;13185;50.872;5.306;2023-06-26T09:30:05;101442.03;;;23.27;57.13
25238;BME280;13185;50.872;5.306;2023-06-26T09:32:35;101442.91;;;23.36;54.44
25238;BME280;13185;50.872;5.306;2023-06-26T09:35:03;101446.84;;;23.49;54.08
25238;BME280;13185;50.872;5.306;2023-06-26T09:37:29;101453.56;;;23.63;52.77
25238;BME280;13185;50.872;5.306;2023-06-26T09:39:54;101456.97;;;23.65;52.43
25238;BME280;13185;50.872;5.306;2023-06-26T09:42:21;101451.47;;;23.49;51.81
25238;BME280;13185;50.872;5.306;2023-06-26T09:44:47;101461.41;;;23.50;52.35
25238;BME280;13185;50.872;5.306;2023-06-26T09:47:18;101475.78;;;23.52;51.87
25238;BME280;13185;50.872;5.306;2023-06-26T09:49:44;101468.94;;;23.48;51.44
25238;BME280;13185;50.872;5.306;2023-06-26T09:52:10;101469.13;;;23.63;50.63
25238;BME280;13185;50.872;5.306;2023-06-26T09:54:35;101473.09;;;23.76;50.57
25238;BME280;13185;50.872;5.306;2023-06-26T09:57:12;101468.50;;;23.77;49.05
25238;BME280;13185;50.872;5.306;2023-06-26T09:59:39;101468.47;;;23.69;48.68
25238;BME280;13185;50.872;5.306;2023-06-26T10:02:05;101455.63;;;23.61;48.70
25238;BME280;13185;50.872;5.306;2023-06-26T10:04:32;101450.31;;;23.59;49.13
25238;BME280;13185;50.872;5.306;2023-06-26T10:06:58;101430.81;;;23.71;49.88
25238;BME280;13185;50.872;5.306;2023-06-26T10:09:27;101453.59;;;23.79;49.98
25238;BME280;13185;50.872;5.306;2023-06-26T10:12:22;101461.97;;;23.78;49.72
25238;BME280;13185;50.872;5.306;2023-06-26T10:14:52;101463.34;;;23.66;47.86
25238;BME280;13185;50.872;5.306;2023-06-26T10:17:19;101463.00;;;23.69;47.69
25238;BME280;13185;50.872;5.306;2023-06-26T10:19:47;101463.88;;;23.77;47.93
25238;BME280;13185;50.872;5.306;2023-06-26T10:22:15;101473.94;;;23.85;48.06
25238;BME280;13185;50.872;5.306;2023-06-26T10:24:43;101466.09;;;23.98;48.19
25238;BME280;13185;50.872;5.306;2023-06-26T10:27:18;101463.66;;;24.11;48.42
25238;BME280;13185;50.872;5.306;2023-06-26T10:29:58;101460.75;;;24.21;48.03
25238;BME280;13185;50.872;5.306;2023-06-26T10:32:26;101466.53;;;24.26;47.44
25238;BME280;13185;50.872;5.306;2023-06-26T10:34:53;101464.00;;;24.33;47.96
25238;BME280;13185;50.872;5.306;2023-06-26T10:37:20;101481.78;;;24.45;47.91
25238;BME280;13185;50.872;5.306;2023-06-26T10:39:46;101479.72;;;24.55;47.88
25238;BME280;13185;50.872;5.306;2023-06-26T10:42:18;101482.81;;;24.52;44.66
25238;BME280;13185;50.872;5.306;2023-06-26T10:44:46;101484.53;;;24.53;44.40
25238;BME280;13185;50.872;5.306;2023-06-26T10:47:31;101487.94;;;24.55;44.47
25238;BME280;13185;50.872;5.306;2023-06-26T10:49:57;101496.69;;;24.51;43.74
25238;BME280;13185;50.872;5.306;2023-06-26T10:52:26;101491.06;;;24.36;43.53
25238;BME280;13185;50.872;5.306;2023-06-26T10:54:54;101490.00;;;24.45;43.88
25238;BME280;13185;50.872;5.306;2023-06-26T10:57:23;101498.06;;;24.46;44.25
25238;BME280;13185;50.872;5.306;2023-06-26T11:00:08;101504.75;;;24.36;44.09
25238;BME280;13185;50.872;5.306;2023-06-26T11:02:47;101504.41;;;24.14;44.01
25238;BME280;13185;50.872;5.306;2023-06-26T11:05:23;101504.94;;;24.10;43.74
25238;BME280;13185;50.872;5.306;2023-06-26T11:10:48;101492.09;;;24.43;45.03
25238;BME280;13185;50.872;5.306;2023-06-26T11:13:13;101500.59;;;24.64;44.79
25238;BME280;13185;50.872;5.306;2023-06-26T11:15:42;101488.38;;;24.83;44.50
25238;BME280;13185;50.872;5.306;2023-06-26T11:18:09;101490.72;;;24.94;44.20
25238;BME280;13185;50.872;5.306;2023-06-26T11:20:34;101490.25;;;24.83;43.75
25238;BME280;13185;50.872;5.306;2023-06-26T11:23:00;101509.56;;;24.42;43.36
25238;BME280;13185;50.872;5.306;2023-06-26T11:25:27;101499.28;;;24.11;44.20
25238;BME280;13185;50.872;5.306;2023-06-26T11:27:53;101509.22;;;24.04;44.40
25238;BME280;13185;50.872;5.306;2023-06-26T11:30:25;101505.78;;;24.02;43.77
25238;BME280;13185;50.872;5.306;2023-06-26T11:32:51;101510.59;;;24.08;44.23
25238;BME280;13185;50.872;5.306;2023-06-26T11:35:23;101506.97;;;24.16;43.98
25238;BME280;13185;50.872;5.306;2023-06-26T11:38:00;101520.34;;;24.19;43.29
25238;BME280;13185;50.872;5.306;2023-06-26T11:40:29;101505.44;;;24.13;42.98
25238;BME280;13185;50.872;5.306;2023-06-26T11:43:00;101518.47;;;24.19;42.50
25238;BME280;13185;50.872;5.306;2023-06-26T11:45:31;101531.81;;;24.14;42.83
25238;BME280;13185;50.872;5.306;2023-06-26T11:47:58;101526.88;;;24.18;43.54
25238;BME280;13185;50.872;5.306;2023-06-26T11:50:24;101533.56;;;24.32;43.30
25238;BME280;13185;50.872;5.306;2023-06-26T11:52:57;101540.03;;;24.47;42.18
25238;BME280;13185;50.872;5.306;2023-06-26T11:55:23;101543.28;;;24.59;41.77
25238;BME280;13185;50.872;5.306;2023-06-26T11:57:50;101556.50;;;24.55;40.76
25238;BME280;13185;50.872;5.306;2023-06-26T12:00:16;101548.09;;;24.57;41.32
25238;BME280;13185;50.872;5.306;2023-06-26T12:02:44;101546.00;;;24.59;40.88
25238;BME280;13185;50.872;5.306;2023-06-26T12:05:11;101552.34;;;24.67;41.18
25238;BME280;13185;50.872;5.306;2023-06-26T12:07:37;101544.78;;;24.77;40.22
25238;BME280;13185;50.872;5.306;2023-06-26T12:10:03;101552.13;;;24.85;41.63
25238;BME280;13185;50.872;5.306;2023-06-26T12:12:30;101547.50;;;24.86;41.95
25238;BME280;13185;50.872;5.306;2023-06-26T12:14:57;101536.34;;;24.87;40.64
25238;BME280;13185;50.872;5.306;2023-06-26T12:17:23;101548.19;;;24.88;39.30
25238;BME280;13185;50.872;5.306;2023-06-26T12:19:50;101551.09;;;25.02;39.87
25238;BME280;13185;50.872;5.306;2023-06-26T12:22:17;101530.75;;;25.20;39.86
25238;BME280;13185;50.872;5.306;2023-06-26T12:24:43;101531.84;;;25.42;39.98
25238;BME280;13185;50.872;5.306;2023-06-26T12:27:10;101536.69;;;25.62;40.10
25238;BME280;13185;50.872;5.306;2023-06-26T12:29:37;101555.06;;;25.62;39.80
25238;BME280;13185;50.872;5.306;2023-06-26T12:32:03;101556.47;;;25.58;38.70
25238;BME280;13185;50.872;5.306;2023-06-26T12:34:33;101541.72;;;25.59;38.75
25238;BME280;13185;50.872;5.306;2023-06-26T12:37:07;101554.38;;;25.68;38.03
25238;BME280;13185;50.872;5.306;2023-06-26T12:42:26;101556.25;;;25.76;37.84
25238;BME280;13185;50.872;5.306;2023-06-26T12:44:53;101562.59;;;25.68;37.96
25238;BME280;13185;50.872;5.306;2023-06-26T12:47:24;101563.06;;;25.80;38.17
25238;BME280;13185;50.872;5.306;2023-06-26T12:49:51;101567.28;;;25.90;38.17
25238;BME280;13185;50.872;5.306;2023-06-26T12:52:17;101563.13;;;25.95;37.52
25238;BME280;13185;50.872;5.306;2023-06-26T12:54:46;101555.94;;;26.16;38.31
25238;BME280;13185;50.872;5.306;2023-06-26T12:57:13;101548.28;;;26.50;38.10
25238;BME280;13185;50.872;5.306;2023-06-26T12:59:41;101555.56;;;26.42;37.38